sensor_id;sensor_type;location;lat;lon;timestamp;temperature;humidity
2387;DHT22;49473;50.772;8.768;2023-04-24T00:01:00;10.80;99.90
2387;DHT22;49473;50.772;8.768;2023-04-24T00:03:27;10.80;99.90
2387;DHT22;49473;50.772;8.768;2023-04-24T00:05:54;10.90;99.90
2387;DHT22;49473;50.772;8.768;2023-04-24T00:08:22;11.00;99.90
2387;DHT22;49473;50.772;8.768;2023-04-24T00:10:49;11.00;99.90
2387;DHT22;49473;50.772;8.768;2023-04-24T00:13:17;11.10;99.90
2387;DHT22;49473;50.772;8.768;2023-04-24T00:15:44;11.10;99.90
2387;DHT22;49473;50.772;8.768;2023-04-24T00:18:11;11.10;99.90
2387;DHT22;49473;50.772;8.768;2023-04-24T00:20:37;11.10;99.90
2387;DHT22;49473;50.772;8.768;2023-04-24T00:23:05;11.10;99.90
2387;DHT22;49473;50.772;8.768;2023-04-24T00:25:33;11.10;99.90
2387;DHT22;49473;50.772;8.768;2023-04-24T00:28:00;11.10;99.90
2387;DHT22;49473;50.772;8.768;2023-04-24T00:30:27;11.10;99.90
2387;DHT22;49473;50.772;8.768;2023-04-24T00:32:54;11.10;99.90
2387;DHT22;49473;50.772;8.768;2023-04-24T00:35:21;11.10;99.90
2387;DHT22;49473;50.772;8.768;2023-04-24T00:37:48;11.20;99.90
2387;DHT22;49473;50.772;8.768;2023-04-24T00:40:15;11.10;99.90
2387;DHT22;49473;50.772;8.768;2023-04-24T00:42:43;11.20;99.90
2387;DHT22;49473;50.772;8.768;2023-04-24T00:45:10;11.10;99.90
2387;DHT22;49473;50.772;8.768;2023-04-24T00:47:38;11.10;99.90
2387;DHT22;49473;50.772;8.768;2023-04-24T00:50:06;11.10;99.90
2387;DHT22;49473;50.772;8.768;2023-04-24T00:52:34;11.10;99.90
2387;DHT22;49473;50.772;8.768;2023-04-24T00:55:02;11.00;99.90
2387;DHT22;49473;50.772;8.768;2023-04-24T00:57:29;11.00;99.90
2387;DHT22;49473;50.772;8.768;2023-04-24T00:59:58;11.00;99.90
2387;DHT22;49473;50.772;8.768;2023-04-24T01:02:25;10.90;99.90
2387;DHT22;49473;50.772;8.768;2023-04-24T01:04:52;10.90;99.90
2387;DHT22;49473;50.772;8.768;2023-04-24T01:07:19;10.80;99.90
2387;DHT22;49473;50.772;8.768;2023-04-24T01:09:48;10.70;99.90
2387;DHT22;49473;50.772;8.768;2023-04-24T01:12:17;10.70;99.90
2387;DHT22;49473;50.772;8.768;2023-04-24T01:14:43;10.70;99.90
2387;DHT22;49473;50.772;8.768;2023-04-24T01:17:12;10.80;99.90
2387;DHT22;49473;50.772;8.768;2023-04-24T01:19:39;10.80;99.90
2387;DHT22;49473;50.772;8.768;2023-04-24T01:22:13;10.80;99.90
2387;DHT22;49473;50.772;8.768;2023-04-24T01:24:40;10.80;99.90
2387;DHT22;49473;50.772;8.768;2023-04-24T01:27:07;10.90;99.90
2387;DHT22;49473;50.772;8.768;2023-04-24T01:29:35;10.90;99.90
2387;DHT22;49473;50.772;8.768;2023-04-24T01:32:03;10.90;99.90
2387;DHT22;49473;50.772;8.768;2023-04-24T01:34:30;10.80;99.90
2387;DHT22;49473;50.772;8.768;2023-04-24T01:36:56;10.80;99.90
2387;DHT22;49473;50.772;8.768;2023-04-24T01:39:25;10.80;99.90
2387;DHT22;49473;50.772;8.768;2023-04-24T01:41:54;10.80;99.90
2387;DHT22;49473;50.772;8.768;2023-04-24T01:44:21;10.80;99.90
2387;DHT22;49473;50.772;8.768;2023-04-24T01:46:47;10.80;99.90
2387;DHT22;49473;50.772;8.768;2023-04-24T01:49:14;10.80;99.90
2387;DHT22;49473;50.772;8.768;2023-04-24T01:51:41;10.80;99.90
2387;DHT22;49473;50.772;8.768;2023-04-24T01:54:08;10.80;99.90
2387;DHT22;49473;50.772;8.768;2023-04-24T01:56:36;10.90;99.90
2387;DHT22;49473;50.772;8.768;2023-04-24T01:59:07;11.00;99.90
2387;DHT22;49473;50.772;8.768;2023-04-24T02:01:36;11.00;99.90
2387;DHT22;49473;50.772;8.768;2023-04-24T02:04:04;11.00;99.90
2387;DHT22;49473;50.772;8.768;2023-04-24T02:06:30;11.00;99.90
2387;DHT22;49473;50.772;8.768;2023-04-24T02:08:57;11.00;99.90
2387;DHT22;49473;50.772;8.768;2023-04-24T02:11:24;11.00;99.90
2387;DHT22;49473;50.772;8.768;2023-04-24T02:13:52;10.90;99.90
2387;DHT22;49473;50.772;8.768;2023-04-24T02:16:19;10.90;99.90
2387;DHT22;49473;50.772;8.768;2023-04-24T02:18:46;10.90;99.90
2387;DHT22;49473;50.772;8.768;2023-04-24T02:21:12;10.90;99.90
2387;DHT22;49473;50.772;8.768;2023-04-24T02:23:39;10.90;99.90
2387;DHT22;49473;50.772;8.768;2023-04-24T02:26:06;10.90;99.90
2387;DHT22;49473;50.772;8.768;2023-04-24T02:28:33;10.80;99.90
2387;DHT22;49473;50.772;8.768;2023-04-24T02:31:01;10.80;99.90
2387;DHT22;49473;50.772;8.768;2023-04-24T02:33:28;10.80;99.90
2387;DHT22;49473;50.772;8.768;2023-04-24T02:35:55;10.70;99.90
2387;DHT22;49473;50.772;8.768;2023-04-24T02:38:21;10.60;99.90
2387;DHT22;49473;50.772;8.768;2023-04-24T02:40:48;10.60;99.90
2387;DHT22;49473;50.772;8.768;2023-04-24T02:43:15;10.60;99.90
2387;DHT22;49473;50.772;8.768;2023-04-24T02:45:42;10.50;99.90
2387;DHT22;49473;50.772;8.768;2023-04-24T02:48:10;10.60;99.90
2387;DHT22;49473;50.772;8.768;2023-04-24T02:50:36;10.50;99.90
2387;DHT22;49473;50.772;8.768;2023-04-24T02:53:03;10.40;99.90
2387;DHT22;49473;50.772;8.768;2023-04-24T02:55:30;10.40;99.90
2387;DHT22;49473;50.772;8.768;2023-04-24T02:57:57;10.40;99.90
2387;DHT22;49473;50.772;8.768;2023-04-24T03:00:23;10.30;99.90
2387;DHT22;49473;50.772;8.768;2023-04-24T03:02:50;10.30;99.90
2387;DHT22;49473;50.772;8.768;2023-04-24T03:05:18;10.20;99.90
2387;DHT22;49473;50.772;8.768;2023-04-24T03:07:45;10.20;99.90
2387;DHT22;49473;50.772;8.768;2023-04-24T03:10:12;10.10;99.90
2387;DHT22;49473;50.772;8.768;2023-04-24T03:12:39;10.10;99.90
2387;DHT22;49473;50.772;8.768;2023-04-24T03:15:07;10.20;99.90
2387;DHT22;49473;50.772;8.768;2023-04-24T03:17:33;10.10;99.90
2387;DHT22;49473;50.772;8.768;2023-04-24T03:20:01;10.10;99.90
2387;DHT22;49473;50.772;8.768;2023-04-24T03:22:29;10.10;99.90
2387;DHT22;49473;50.772;8.768;2023-04-24T03:24:58;10.10;99.90
2387;DHT22;49473;50.772;8.768;2023-04-24T03:27:24;10.10;99.90
2387;DHT22;49473;50.772;8.768;2023-04-24T03:29:51;10.10;99.90
2387;DHT22;49473;50.772;8.768;2023-04-24T03:32:20;10.20;99.90
2387;DHT22;49473;50.772;8.768;2023-04-24T03:34:47;10.20;99.90
2387;DHT22;49473;50.772;8.768;2023-04-24T03:37:14;10.20;99.90
2387;DHT22;49473;50.772;8.768;2023-04-24T03:39:42;10.30;99.90
2387;DHT22;49473;50.772;8.768;2023-04-24T03:42:09;10.30;99.90
2387;DHT22;49473;50.772;8.768;2023-04-24T03:44:36;10.30;99.90
2387;DHT22;49473;50.772;8.768;2023-04-24T03:47:03;10.30;99.90
2387;DHT22;49473;50.772;8.768;2023-04-24T03:49:30;10.30;99.90
2387;DHT22;49473;50.772;8.768;2023-04-24T03:51:57;10.30;99.90
2387;DHT22;49473;50.772;8.768;2023-04-24T03:54:23;10.30;99.90
2387;DHT22;49473;50.772;8.768;2023-04-24T03:56:52;10.30;99.90
2387;DHT22;49473;50.772;8.768;2023-04-24T03:59:18;10.30;99.90
2387;DHT22;49473;50.772;8.768;2023-04-24T04:01:45;10.30;99.90
2387;DHT22;49473;50.772;8.768;2023-04-24T04:04:12;10.30;99.90
2387;DHT22;49473;50.772;8.768;2023-04-24T04:06:39;10.20;99.90
2387;DHT22;49473;50.772;8.768;2023-04-24T04:09:05;10.20;99.90
2387;DHT22;49473;50.772;8.768;2023-04-24T04:11:32;10.30;99.90
2387;DHT22;49473;50.772;8.768;2023-04-24T04:14:02;10.20;99.90
2387;DHT22;49473;50.772;8.768;2023-04-24T04:16:29;10.30;99.90
2387;DHT22;49473;50.772;8.768;2023-04-24T04:18:56;10.20;99.90
2387;DHT22;49473;50.772;8.768;2023-04-24T04:21:23;10.30;99.90
2387;DHT22;49473;50.772;8.768;2023-04-24T04:23:50;10.30;99.90
2387;DHT22;49473;50.772;8.768;2023-04-24T04:26:16;10.40;99.90
2387;DHT22;49473;50.772;8.768;2023-04-24T04:28:44;10.30;99.90
2387;DHT22;49473;50.772;8.768;2023-04-24T04:31:12;10.30;99.90
2387;DHT22;49473;50.772;8.768;2023-04-24T04:33:39;10.20;99.90
2387;DHT22;49473;50.772;8.768;2023-04-24T04:36:06;10.10;99.90
2387;DHT22;49473;50.772;8.768;2023-04-24T04:38:33;10.10;99.90
2387;DHT22;49473;50.772;8.768;2023-04-24T04:41:00;10.00;99.90
2387;DHT22;49473;50.772;8.768;2023-04-24T04:43:27;9.80;99.90
2387;DHT22;49473;50.772;8.768;2023-04-24T04:45:54;9.80;99.90
2387;DHT22;49473;50.772;8.768;2023-04-24T04:48:22;9.70;99.90
2387;DHT22;49473;50.772;8.768;2023-04-24T04:50:49;9.60;99.90
2387;DHT22;49473;50.772;8.768;2023-04-24T04:53:16;9.60;99.90
2387;DHT22;49473;50.772;8.768;2023-04-24T04:55:43;9.50;99.90
2387;DHT22;49473;50.772;8.768;2023-04-24T04:58:10;9.50;99.90
2387;DHT22;49473;50.772;8.768;2023-04-24T05:00:37;9.50;99.90
2387;DHT22;49473;50.772;8.768;2023-04-24T05:03:04;9.40;99.90
2387;DHT22;49473;50.772;8.768;2023-04-24T05:05:32;9.40;99.90
2387;DHT22;49473;50.772;8.768;2023-04-24T05:07:59;9.50;99.90
2387;DHT22;49473;50.772;8.768;2023-04-24T05:10:26;9.50;99.90
2387;DHT22;49473;50.772;8.768;2023-04-24T05:12:53;9.50;99.90
2387;DHT22;49473;50.772;8.768;2023-04-24T05:15:19;9.60;99.90
2387;DHT22;49473;50.772;8.768;2023-04-24T05:17:46;9.50;99.90
2387;DHT22;49473;50.772;8.768;2023-04-24T05:20:13;9.40;99.90
2387;DHT22;49473;50.772;8.768;2023-04-24T05:22:41;9.50;99.90
2387;DHT22;49473;50.772;8.768;2023-04-24T05:25:08;9.60;99.90
2387;DHT22;49473;50.772;8.768;2023-04-24T05:27:35;9.80;99.90
2387;DHT22;49473;50.772;8.768;2023-04-24T05:30:02;10.00;99.90
2387;DHT22;49473;50.772;8.768;2023-04-24T05:32:30;10.30;99.90
2387;DHT22;49473;50.772;8.768;2023-04-24T05:34:56;10.60;99.90
2387;DHT22;49473;50.772;8.768;2023-04-24T05:37:23;10.90;99.90
2387;DHT22;49473;50.772;8.768;2023-04-24T05:39:51;11.10;99.90
2387;DHT22;49473;50.772;8.768;2023-04-24T05:42:18;11.30;99.90
2387;DHT22;49473;50.772;8.768;2023-04-24T05:44:45;11.30;99.90
2387;DHT22;49473;50.772;8.768;2023-04-24T05:47:12;11.50;99.90
2387;DHT22;49473;50.772;8.768;2023-04-24T05:49:38;11.50;99.90
2387;DHT22;49473;50.772;8.768;2023-04-24T05:52:05;11.80;99.90
2387;DHT22;49473;50.772;8.768;2023-04-24T05:54:34;12.20;99.90
2387;DHT22;49473;50.772;8.768;2023-04-24T05:57:02;12.20;99.90
2387;DHT22;49473;50.772;8.768;2023-04-24T05:59:32;12.30;99.90
2387;DHT22;49473;50.772;8.768;2023-04-24T06:01:59;12.30;99.90
2387;DHT22;49473;50.772;8.768;2023-04-24T06:04:26;12.50;99.90
2387;DHT22;49473;50.772;8.768;2023-04-24T06:06:53;12.70;99.90
2387;DHT22;49473;50.772;8.768;2023-04-24T06:09:21;12.90;99.90
2387;DHT22;49473;50.772;8.768;2023-04-24T06:11:48;13.00;99.90
2387;DHT22;49473;50.772;8.768;2023-04-24T06:14:17;12.60;99.90
2387;DHT22;49473;50.772;8.768;2023-04-24T06:16:44;12.50;99.90
2387;DHT22;49473;50.772;8.768;2023-04-24T06:19:10;12.50;99.90
2387;DHT22;49473;50.772;8.768;2023-04-24T06:21:37;12.30;99.90
2387;DHT22;49473;50.772;8.768;2023-04-24T06:24:04;12.60;99.90
2387;DHT22;49473;50.772;8.768;2023-04-24T06:26:31;12.70;99.90
2387;DHT22;49473;50.772;8.768;2023-04-24T06:28:58;13.20;99.90
2387;DHT22;49473;50.772;8.768;2023-04-24T06:31:27;13.50;99.90
2387;DHT22;49473;50.772;8.768;2023-04-24T06:33:53;14.40;99.90
2387;DHT22;49473;50.772;8.768;2023-04-24T06:36:20;14.70;99.90
2387;DHT22;49473;50.772;8.768;2023-04-24T06:38:47;15.30;99.90
2387;DHT22;49473;50.772;8.768;2023-04-24T06:41:13;15.10;99.90
2387;DHT22;49473;50.772;8.768;2023-04-24T06:43:40;14.90;99.90
2387;DHT22;49473;50.772;8.768;2023-04-24T06:46:07;14.70;99.90
2387;DHT22;49473;50.772;8.768;2023-04-24T06:48:35;14.40;99.90
2387;DHT22;49473;50.772;8.768;2023-04-24T06:51:02;14.10;99.90
2387;DHT22;49473;50.772;8.768;2023-04-24T06:53:29;13.50;99.90
2387;DHT22;49473;50.772;8.768;2023-04-24T06:55:55;12.90;99.90
2387;DHT22;49473;50.772;8.768;2023-04-24T06:58:22;12.60;99.90
2387;DHT22;49473;50.772;8.768;2023-04-24T07:00:49;12.10;99.90
2387;DHT22;49473;50.772;8.768;2023-04-24T07:03:16;12.10;99.90
2387;DHT22;49473;50.772;8.768;2023-04-24T07:05:44;12.00;99.90
2387;DHT22;49473;50.772;8.768;2023-04-24T07:08:11;12.00;99.90
2387;DHT22;49473;50.772;8.768;2023-04-24T07:10:39;12.10;99.90
2387;DHT22;49473;50.772;8.768;2023-04-24T07:13:06;12.70;99.90
2387;DHT22;49473;50.772;8.768;2023-04-24T07:15:33;13.20;99.90
2387;DHT22;49473;50.772;8.768;2023-04-24T07:18:01;13.90;99.90
2387;DHT22;49473;50.772;8.768;2023-04-24T07:20:27;14.90;99.90
2387;DHT22;49473;50.772;8.768;2023-04-24T07:22:56;15.80;99.90
2387;DHT22;49473;50.772;8.768;2023-04-24T07:25:23;16.40;99.90
2387;DHT22;49473;50.772;8.768;2023-04-24T07:27:49;16.70;99.90
2387;DHT22;49473;50.772;8.768;2023-04-24T07:30:16;17.20;99.90
2387;DHT22;49473;50.772;8.768;2023-04-24T07:32:43;17.60;99.90
2387;DHT22;49473;50.772;8.768;2023-04-24T07:35:09;18.10;99.90
2387;DHT22;49473;50.772;8.768;2023-04-24T07:37:36;18.70;99.90
2387;DHT22;49473;50.772;8.768;2023-04-24T07:40:06;19.30;99.90
2387;DHT22;49473;50.772;8.768;2023-04-24T07:42:33;19.30;99.90
2387;DHT22;49473;50.772;8.768;2023-04-24T07:45:00;18.70;99.90
2387;DHT22;49473;50.772;8.768;2023-04-24T07:47:27;18.70;99.90
2387;DHT22;49473;50.772;8.768;2023-04-24T07:49:53;17.80;99.90
2387;DHT22;49473;50.772;8.768;2023-04-24T07:52:20;18.00;99.90
2387;DHT22;49473;50.772;8.768;2023-04-24T07:54:47;17.80;99.90
2387;DHT22;49473;50.772;8.768;2023-04-24T07:57:16;17.70;99.90
2387;DHT22;49473;50.772;8.768;2023-04-24T07:59:43;16.40;99.90
2387;DHT22;49473;50.772;8.768;2023-04-24T08:02:10;15.30;99.90
2387;DHT22;49473;50.772;8.768;2023-04-24T08:04:37;14.70;99.90
2387;DHT22;49473;50.772;8.768;2023-04-24T08:07:04;14.20;99.90
2387;DHT22;49473;50.772;8.768;2023-04-24T08:09:30;14.50;99.90
2387;DHT22;49473;50.772;8.768;2023-04-24T08:11:57;14.90;99.90
2387;DHT22;49473;50.772;8.768;2023-04-24T08:14:26;15.90;99.90
2387;DHT22;49473;50.772;8.768;2023-04-24T08:16:54;16.40;99.90
2387;DHT22;49473;50.772;8.768;2023-04-24T08:19:21;15.30;99.90
2387;DHT22;49473;50.772;8.768;2023-04-24T08:21:48;14.90;99.90
2387;DHT22;49473;50.772;8.768;2023-04-24T08:24:14;14.60;99.90
2387;DHT22;49473;50.772;8.768;2023-04-24T08:26:41;14.40;99.90
2387;DHT22;49473;50.772;8.768;2023-04-24T08:29:08;14.30;99.90
2387;DHT22;49473;50.772;8.768;2023-04-24T08:31:36;14.00;99.90
2387;DHT22;49473;50.772;8.768;2023-04-24T08:34:03;13.80;99.90
2387;DHT22;49473;50.772;8.768;2023-04-24T08:36:30;13.80;99.90
2387;DHT22;49473;50.772;8.768;2023-04-24T08:38:57;13.40;99.90
2387;DHT22;49473;50.772;8.768;2023-04-24T08:41:24;13.80;99.90
2387;DHT22;49473;50.772;8.768;2023-04-24T08:43:51;14.70;99.90
2387;DHT22;49473;50.772;8.768;2023-04-24T08:46:19;15.90;99.90
2387;DHT22;49473;50.772;8.768;2023-04-24T08:48:48;16.60;99.90
2387;DHT22;49473;50.772;8.768;2023-04-24T08:51:16;17.50;99.90
2387;DHT22;49473;50.772;8.768;2023-04-24T08:53:43;17.50;99.90
2387;DHT22;49473;50.772;8.768;2023-04-24T08:56:11;17.00;99.90
2387;DHT22;49473;50.772;8.768;2023-04-24T08:58:39;16.20;99.90
2387;DHT22;49473;50.772;8.768;2023-04-24T09:01:06;15.60;99.90
2387;DHT22;49473;50.772;8.768;2023-04-24T09:03:33;14.80;99.90
2387;DHT22;49473;50.772;8.768;2023-04-24T09:06:04;14.60;99.90
2387;DHT22;49473;50.772;8.768;2023-04-24T09:08:33;14.80;99.90
2387;DHT22;49473;50.772;8.768;2023-04-24T09:10:59;14.60;99.90
2387;DHT22;49473;50.772;8.768;2023-04-24T09:13:28;14.20;99.90
2387;DHT22;49473;50.772;8.768;2023-04-24T09:15:56;13.90;99.90
2387;DHT22;49473;50.772;8.768;2023-04-24T09:18:23;13.60;99.90
2387;DHT22;49473;50.772;8.768;2023-04-24T09:21:02;13.40;99.90
2387;DHT22;49473;50.772;8.768;2023-04-24T09:23:31;13.40;99.90
2387;DHT22;49473;50.772;8.768;2023-04-24T09:26:00;13.30;99.90
2387;DHT22;49473;50.772;8.768;2023-04-24T09:28:31;13.30;99.90
2387;DHT22;49473;50.772;8.768;2023-04-24T09:31:06;13.30;99.90
2387;DHT22;49473;50.772;8.768;2023-04-24T09:33:33;13.40;99.90
2387;DHT22;49473;50.772;8.768;2023-04-24T09:36:00;13.60;99.90
2387;DHT22;49473;50.772;8.768;2023-04-24T09:38:34;13.80;99.90
2387;DHT22;49473;50.772;8.768;2023-04-24T09:41:02;14.20;99.90
2387;DHT22;49473;50.772;8.768;2023-04-24T09:43:30;14.20;99.90
2387;DHT22;49473;50.772;8.768;2023-04-24T09:45:58;14.20;99.90
2387;DHT22;49473;50.772;8.768;2023-04-24T09:48:33;13.80;99.90
2387;DHT22;49473;50.772;8.768;2023-04-24T09:51:01;13.60;99.90
2387;DHT22;49473;50.772;8.768;2023-04-24T09:53:29;13.30;99.90
2387;DHT22;49473;50.772;8.768;2023-04-24T09:56:02;13.00;99.90
2387;DHT22;49473;50.772;8.768;2023-04-24T09:58:29;12.70;99.90
2387;DHT22;49473;50.772;8.768;2023-04-24T10:00:56;12.70;99.90
2387;DHT22;49473;50.772;8.768;2023-04-24T10:03:24;12.50;99.90
2387;DHT22;49473;50.772;8.768;2023-04-24T10:05:52;12.50;99.90
2387;DHT22;49473;50.772;8.768;2023-04-24T10:08:20;12.50;99.90
2387;DHT22;49473;50.772;8.768;2023-04-24T10:10:47;12.30;99.90
2387;DHT22;49473;50.772;8.768;2023-04-24T10:13:15;12.30;99.90
2387;DHT22;49473;50.772;8.768;2023-04-24T10:15:42;12.10;99.90
2387;DHT22;49473;50.772;8.768;2023-04-24T10:18:10;12.20;99.90
2387;DHT22;49473;50.772;8.768;2023-04-24T10:20:39;12.20;99.90
2387;DHT22;49473;50.772;8.768;2023-04-24T10:23:07;12.00;99.90
2387;DHT22;49473;50.772;8.768;2023-04-24T10:25:35;11.80;99.90
2387;DHT22;49473;50.772;8.768;2023-04-24T10:28:03;11.90;99.90
2387;DHT22;49473;50.772;8.768;2023-04-24T10:30:32;11.80;99.90
2387;DHT22;49473;50.772;8.768;2023-04-24T10:33:01;11.60;99.90
2387;DHT22;49473;50.772;8.768;2023-04-24T10:35:31;11.70;99.90
2387;DHT22;49473;50.772;8.768;2023-04-24T10:38:01;12.00;99.90
2387;DHT22;49473;50.772;8.768;2023-04-24T10:40:30;12.40;99.90
2387;DHT22;49473;50.772;8.768;2023-04-24T10:42:57;12.60;99.90
2387;DHT22;49473;50.772;8.768;2023-04-24T10:45:24;12.40;99.90
2387;DHT22;49473;50.772;8.768;2023-04-24T10:47:56;12.30;99.90
2387;DHT22;49473;50.772;8.768;2023-04-24T10:50:24;12.00;99.90
2387;DHT22;49473;50.772;8.768;2023-04-24T10:52:51;11.60;99.90
2387;DHT22;49473;50.772;8.768;2023-04-24T10:55:41;11.40;99.90
2387;DHT22;49473;50.772;8.768;2023-04-24T10:58:08;11.00;99.90
2387;DHT22;49473;50.772;8.768;2023-04-24T11:00:37;11.30;99.90
2387;DHT22;49473;50.772;8.768;2023-04-24T11:03:06;11.40;99.90
2387;DHT22;49473;50.772;8.768;2023-04-24T11:05:55;11.20;99.90
2387;DHT22;49473;50.772;8.768;2023-04-24T11:08:24;11.20;99.90
2387;DHT22;49473;50.772;8.768;2023-04-24T11:10:59;11.80;99.90
2387;DHT22;49473;50.772;8.768;2023-04-24T11:14:00;12.00;99.90
2387;DHT22;49473;50.772;8.768;2023-04-24T11:16:20;12.10;99.90
2387;DHT22;49473;50.772;8.768;2023-04-24T11:18:51;11.90;99.90
2387;DHT22;49473;50.772;8.768;2023-04-24T11:21:20;11.40;99.90
2387;DHT22;49473;50.772;8.768;2023-04-24T11:23:48;11.40;99.90
2387;DHT22;49473;50.772;8.768;2023-04-24T11:26:18;11.20;99.90
2387;DHT22;49473;50.772;8.768;2023-04-24T11:28:49;11.10;99.90
2387;DHT22;49473;50.772;8.768;2023-04-24T11:31:37;11.00;99.90
2387;DHT22;49473;50.772;8.768;2023-04-24T11:34:08;10.90;99.90
2387;DHT22;49473;50.772;8.768;2023-04-24T11:36:36;11.10;99.90
2387;DHT22;49473;50.772;8.768;2023-04-24T11:39:04;11.00;99.90
2387;DHT22;49473;50.772;8.768;2023-04-24T11:41:31;11.20;99.90
2387;DHT22;49473;50.772;8.768;2023-04-24T11:43:58;11.40;99.90
2387;DHT22;49473;50.772;8.768;2023-04-24T11:46:27;11.50;99.90
2387;DHT22;49473;50.772;8.768;2023-04-24T11:48:57;11.50;99.90
2387;DHT22;49473;50.772;8.768;2023-04-24T11:51:24;11.50;99.90
2387;DHT22;49473;50.772;8.768;2023-04-24T11:53:52;11.90;99.90
2387;DHT22;49473;50.772;8.768;2023-04-24T11:56:19;12.20;99.90
2387;DHT22;49473;50.772;8.768;2023-04-24T11:58:46;12.40;99.90
2387;DHT22;49473;50.772;8.768;2023-04-24T12:01:13;12.50;99.90
2387;DHT22;49473;50.772;8.768;2023-04-24T12:03:40;12.00;99.90
2387;DHT22;49473;50.772;8.768;2023-04-24T12:06:11;11.70;99.90
2387;DHT22;49473;50.772;8.768;2023-04-24T12:08:37;11.40;99.90
2387;DHT22;49473;50.772;8.768;2023-04-24T12:11:06;11.30;99.90
2387;DHT22;49473;50.772;8.768;2023-04-24T12:13:33;11.20;99.90
2387;DHT22;49473;50.772;8.768;2023-04-24T12:16:02;11.40;99.90
2387;DHT22;49473;50.772;8.768;2023-04-24T12:18:29;11.60;99.90
2387;DHT22;49473;50.772;8.768;2023-04-24T12:21:16;11.70;99.90
2387;DHT22;49473;50.772;8.768;2023-04-24T12:23:43;11.50;99.90
2387;DHT22;49473;50.772;8.768;2023-04-24T12:26:10;11.60;99.90
2387;DHT22;49473;50.772;8.768;2023-04-24T12:28:38;11.70;99.90
2387;DHT22;49473;50.772;8.768;2023-04-24T12:31:06;11.70;99.90
2387;DHT22;49473;50.772;8.768;2023-04-24T12:33:34;11.60;99.90
2387;DHT22;49473;50.772;8.768;2023-04-24T12:36:02;11.70;99.90
2387;DHT22;49473;50.772;8.768;2023-04-24T12:38:30;12.00;99.90
2387;DHT22;49473;50.772;8.768;2023-04-24T12:41:06;12.30;99.90
2387;DHT22;49473;50.772;8.768;2023-04-24T12:43:34;12.60;99.90
2387;DHT22;49473;50.772;8.768;2023-04-24T12:46:01;12.80;99.90
2387;DHT22;49473;50.772;8.768;2023-04-24T12:48:29;12.90;99.90
2387;DHT22;49473;50.772;8.768;2023-04-24T12:50:57;13.00;99.90
2387;DHT22;49473;50.772;8.768;2023-04-24T12:53:27;13.70;99.90
2387;DHT22;49473;50.772;8.768;2023-04-24T12:55:56;14.30;99.90
2387;DHT22;49473;50.772;8.768;2023-04-24T12:58:23;15.10;99.90
2387;DHT22;49473;50.772;8.768;2023-04-24T13:00:50;16.50;99.90
2387;DHT22;49473;50.772;8.768;2023-04-24T13:03:18;15.90;99.90
2387;DHT22;49473;50.772;8.768;2023-04-24T13:05:45;16.60;99.90
2387;DHT22;49473;50.772;8.768;2023-04-24T13:08:11;16.10;99.90
2387;DHT22;49473;50.772;8.768;2023-04-24T13:10:39;15.90;99.90
2387;DHT22;49473;50.772;8.768;2023-04-24T13:13:08;14.80;99.90
2387;DHT22;49473;50.772;8.768;2023-04-24T13:15:35;13.60;99.90
2387;DHT22;49473;50.772;8.768;2023-04-24T13:18:02;13.20;99.90
2387;DHT22;49473;50.772;8.768;2023-04-24T13:20:29;12.90;99.90
2387;DHT22;49473;50.772;8.768;2023-04-24T13:22:55;13.10;99.90
2387;DHT22;49473;50.772;8.768;2023-04-24T13:25:22;13.20;99.90
2387;DHT22;49473;50.772;8.768;2023-04-24T13:27:50;12.90;99.90
2387;DHT22;49473;50.772;8.768;2023-04-24T13:30:18;12.40;99.90
2387;DHT22;49473;50.772;8.768;2023-04-24T13:32:45;11.80;99.90
2387;DHT22;49473;50.772;8.768;2023-04-24T13:35:12;11.60;99.90
2387;DHT22;49473;50.772;8.768;2023-04-24T13:37:39;11.50;99.90
2387;DHT22;49473;50.772;8.768;2023-04-24T13:40:06;11.20;99.90
2387;DHT22;49473;50.772;8.768;2023-04-24T13:42:33;11.20;99.90
2387;DHT22;49473;50.772;8.768;2023-04-24T13:45:00;11.30;99.90
2387;DHT22;49473;50.772;8.768;2023-04-24T13:47:28;11.20;99.90
2387;DHT22;49473;50.772;8.768;2023-04-24T13:49:55;11.10;99.90
2387;DHT22;49473;50.772;8.768;2023-04-24T13:52:22;11.20;99.90
2387;DHT22;49473;50.772;8.768;2023-04-24T13:54:48;11.60;99.90
2387;DHT22;49473;50.772;8.768;2023-04-24T13:57:15;12.00;99.90
2387;DHT22;49473;50.772;8.768;2023-04-24T13:59:43;12.20;99.90
2387;DHT22;49473;50.772;8.768;2023-04-24T14:02:10;12.40;99.90
2387;DHT22;49473;50.772;8.768;2023-04-24T14:04:38;12.20;99.90
2387;DHT22;49473;50.772;8.768;2023-04-24T14:07:05;12.20;99.90
2387;DHT22;49473;50.772;8.768;2023-04-24T14:09:33;12.40;99.90
2387;DHT22;49473;50.772;8.768;2023-04-24T14:12:00;12.40;99.90
2387;DHT22;49473;50.772;8.768;2023-04-24T14:14:27;12.60;99.90
2387;DHT22;49473;50.772;8.768;2023-04-24T14:16:55;12.50;99.90
2387;DHT22;49473;50.772;8.768;2023-04-24T14:19:22;13.10;99.90
2387;DHT22;49473;50.772;8.768;2023-04-24T14:21:50;13.60;99.90
2387;DHT22;49473;50.772;8.768;2023-04-24T14:24:18;13.90;99.90
2387;DHT22;49473;50.772;8.768;2023-04-24T14:26:45;13.50;99.90
2387;DHT22;49473;50.772;8.768;2023-04-24T14:29:11;13.30;99.90
2387;DHT22;49473;50.772;8.768;2023-04-24T14:31:38;13.50;99.90
2387;DHT22;49473;50.772;8.768;2023-04-24T14:34:05;13.20;99.90
2387;DHT22;49473;50.772;8.768;2023-04-24T14:36:32;12.70;99.90
2387;DHT22;49473;50.772;8.768;2023-04-24T14:39:00;12.30;99.90
2387;DHT22;49473;50.772;8.768;2023-04-24T14:41:28;12.00;99.90
2387;DHT22;49473;50.772;8.768;2023-04-24T14:43:55;12.00;99.90
2387;DHT22;49473;50.772;8.768;2023-04-24T14:46:22;12.20;99.90
2387;DHT22;49473;50.772;8.768;2023-04-24T14:48:49;12.20;99.90
2387;DHT22;49473;50.772;8.768;2023-04-24T14:51:16;11.90;99.90
2387;DHT22;49473;50.772;8.768;2023-04-24T14:53:42;11.30;99.90
2387;DHT22;49473;50.772;8.768;2023-04-24T14:56:13;11.00;99.90
2387;DHT22;49473;50.772;8.768;2023-04-24T14:58:40;10.80;99.90
2387;DHT22;49473;50.772;8.768;2023-04-24T15:01:07;11.00;99.90
2387;DHT22;49473;50.772;8.768;2023-04-24T15:03:33;11.20;99.90
2387;DHT22;49473;50.772;8.768;2023-04-24T15:06:00;11.60;99.90
2387;DHT22;49473;50.772;8.768;2023-04-24T15:08:27;11.80;99.90
2387;DHT22;49473;50.772;8.768;2023-04-24T15:10:54;11.70;99.90
2387;DHT22;49473;50.772;8.768;2023-04-24T15:13:22;11.70;99.90
2387;DHT22;49473;50.772;8.768;2023-04-24T15:15:49;11.60;99.90
2387;DHT22;49473;50.772;8.768;2023-04-24T15:18:16;11.70;99.90
2387;DHT22;49473;50.772;8.768;2023-04-24T15:20:43;11.90;99.90
2387;DHT22;49473;50.772;8.768;2023-04-24T15:23:10;12.00;99.90
2387;DHT22;49473;50.772;8.768;2023-04-24T15:25:38;12.00;99.90
2387;DHT22;49473;50.772;8.768;2023-04-24T15:28:05;12.00;99.90
2387;DHT22;49473;50.772;8.768;2023-04-24T15:30:33;11.90;99.90
2387;DHT22;49473;50.772;8.768;2023-04-24T15:33:00;11.70;99.90
2387;DHT22;49473;50.772;8.768;2023-04-24T15:35:27;11.70;99.90
2387;DHT22;49473;50.772;8.768;2023-04-24T15:37:54;11.50;99.90
2387;DHT22;49473;50.772;8.768;2023-04-24T15:40:21;11.30;99.90
2387;DHT22;49473;50.772;8.768;2023-04-24T15:42:48;11.20;99.90
2387;DHT22;49473;50.772;8.768;2023-04-24T15:45:15;11.10;99.90
2387;DHT22;49473;50.772;8.768;2023-04-24T15:47:44;10.90;99.90
2387;DHT22;49473;50.772;8.768;2023-04-24T15:50:11;10.70;99.90